CheckWX is a tool to help pilots better visualize weather data.  It is not intended as a substitute for an official pre-flight weather briefing.

10:06:17 UTC

KHKY METAR
Hickory Regional Airport
Hickory, North Carolina, USA
Current

13 mins ago

KHKY 200953Z AUTO 02006KT 4SM BR OVC002 01/01 A3035 RMK AO2 RAE20UPB0859E24 SLP275 P0000 T00060006
Observed
Feb-20 @ 09:53 UTC
Wind
  • 020° at 6 KTS
Visibility
6,437 meters
Flight Rules
LIFR
Conditions
Mist
Cloud Levels
  • Overcast at 200' AGL
Temperature
C / 34°F
Dewpoint
C / 34°F
Humidity
100%
Altimeter
30.35" Hg
Pressure
1027.5 hPa
Current Rain
0.01"
Previous

1 hour ago

KHKY 200853Z AUTO 05004KT 3SM -RA BR OVC003 01/01 A3038 RMK AO2 RAE0755B19UPB0755E00B12E43 SLP285 P0001 60005 T00060006 56013
Observed
Feb-20 @ 08:53 UTC
Wind
  • 050° at 4 KTS
Visibility
4,828 meters
Flight Rules
LIFR
Conditions
Light Rain, Mist
Cloud Levels
  • Overcast at 300' AGL
Temperature
C / 34°F
Dewpoint
C / 34°F
Humidity
100%
Altimeter
30.38" Hg
Pressure
1028.5 hPa
Current Rain
0.01"
Previous

2 hours ago

KHKY 200809Z AUTO 05004KT 6SM BR BKN004 OVC008 01/01 A3039 RMK AO2 RAE0755UPB0755E00 P0000 T00060006
Observed
Feb-20 @ 08:09 UTC
Wind
  • 050° at 4 KTS
Visibility
9,656 meters
Flight Rules
LIFR
Conditions
Mist
Cloud Levels
  • Broken at 400' AGL
  • Overcast at 800' AGL
Temperature
C / 34°F
Dewpoint
C / 34°F
Humidity
100%
Altimeter
30.39" Hg
Pressure
1029.11 hPa
Current Rain
0.01"